createdAt,value
2022-12-23T00:00:41.368Z,97318.94
2022-12-23T00:03:08.505Z,97331.13
2022-12-23T00:05:38.218Z,97329.28
2022-12-23T00:08:06.884Z,97329.84
2022-12-23T00:10:35.256Z,97333.97
2022-12-23T00:13:20.337Z,97345.66
2022-12-23T00:15:47.021Z,97352.63
2022-12-23T00:18:13.695Z,97348.91
2022-12-23T00:20:40.441Z,97353.47
2022-12-23T00:23:07.295Z,97357.94
2022-12-23T00:25:44.091Z,97363.38
2022-12-23T00:28:16.843Z,97370.25
2022-12-23T00:30:49.382Z,97363.31
2022-12-23T00:33:20.033Z,97373.97
2022-12-23T00:35:47.152Z,97379.19
2022-12-23T00:38:14.556Z,97389.97
2022-12-23T00:41:00.240Z,97398.63
2022-12-23T00:43:27.288Z,97396.22
2022-12-23T00:45:54.576Z,97402.06
2022-12-23T00:48:39.759Z,97407.19
2022-12-23T00:51:06.511Z,97413.25
2022-12-23T00:53:33.204Z,97411.91
2022-12-23T00:55:59.847Z,97423.75
2022-12-23T00:58:26.657Z,97432.97
2022-12-23T01:01:12.305Z,97440.22
2022-12-23T01:03:57.853Z,97453.22
2022-12-23T01:06:24.634Z,97457.72
2022-12-23T01:08:51.561Z,97467.44
2022-12-23T01:11:18.450Z,97470.94
2022-12-23T01:13:45.119Z,97476.78
2022-12-23T01:16:17.347Z,97484.84
2022-12-23T01:18:45.277Z,97494.78
2022-12-23T01:21:12.310Z,97497.63
2022-12-23T01:23:39.241Z,97493.25
2022-12-23T01:26:07.648Z,97494.53
2022-12-23T01:28:35.528Z,97494.09
2022-12-23T01:31:04.229Z,97491.84
2022-12-23T01:33:32.871Z,97494.66
2022-12-23T01:36:04.261Z,97495.31
2022-12-23T01:38:30.900Z,97507.00
2022-12-23T01:40:57.895Z,97521.84
2022-12-23T01:43:45.492Z,97528.84
2022-12-23T01:46:12.420Z,97533.66
2022-12-23T01:48:40.982Z,97540.00
2022-12-23T01:51:16.155Z,97532.59
2022-12-23T01:53:57.305Z,97532.41
2022-12-23T01:56:44.205Z,97541.72
2022-12-23T01:59:37.903Z,97530.69
2022-12-23T02:02:23.362Z,97534.13
2022-12-23T02:04:50.997Z,97545.13
2022-12-23T02:07:37.010Z,97548.81
2022-12-23T02:10:05.273Z,97549.47
2022-12-23T02:13:00.661Z,97540.03
2022-12-23T02:16:24.454Z,97547.50
2022-12-23T02:19:12.413Z,97559.00
2022-12-23T02:22:09.933Z,97574.34
2022-12-23T02:25:15.428Z,97579.56
2022-12-23T02:27:52.216Z,97586.47
2022-12-23T02:30:30.240Z,97584.44
2022-12-23T02:32:56.942Z,97586.59
2022-12-23T02:35:51.173Z,97585.16
2022-12-23T02:38:26.862Z,97579.56
2022-12-23T02:41:02.656Z,97583.25
2022-12-23T02:43:55.732Z,97582.31
2022-12-23T02:46:26.671Z,97584.50
2022-12-23T02:49:08.537Z,97573.97
2022-12-23T02:51:41.896Z,97578.25
2022-12-23T02:54:13.630Z,97577.78
2022-12-23T02:56:45.243Z,97591.66
2022-12-23T02:59:26.073Z,97587.66
2022-12-23T03:01:54.741Z,97585.31
2022-12-23T03:04:21.543Z,97573.66
2022-12-23T03:06:52.397Z,97572.38
2022-12-23T03:09:51.823Z,97569.97
2022-12-23T03:12:33.985Z,97583.72
2022-12-23T03:15:27.095Z,97583.91
2022-12-23T03:18:03.489Z,97588.19
2022-12-23T03:21:18.293Z,97594.63
2022-12-23T03:23:55.741Z,97601.19
2022-12-23T03:26:52.074Z,97603.13
2022-12-23T03:29:26.213Z,97590.00
2022-12-23T03:31:57.500Z,97601.56
2022-12-23T03:34:28.481Z,97593.81
2022-12-23T03:36:58.746Z,97591.00
2022-12-23T03:39:32.965Z,97588.34
2022-12-23T03:42:08.798Z,97608.06
2022-12-23T03:45:03.681Z,97606.91
2022-12-23T03:47:35.845Z,97598.84
2022-12-23T03:50:11.557Z,97593.53
2022-12-23T03:52:48.353Z,97613.94
2022-12-23T03:55:22.149Z,97612.69
2022-12-23T03:58:03.021Z,97619.03
2022-12-23T04:00:35.843Z,97625.69
2022-12-23T04:03:21.894Z,97623.56
2022-12-23T04:05:54.520Z,97627.22
2022-12-23T04:08:43.018Z,97626.00
2022-12-23T04:11:10.095Z,97613.78
2022-12-23T04:13:36.953Z,97617.09
2022-12-23T04:16:04.599Z,97618.06
2022-12-23T04:18:31.382Z,97622.09
2022-12-23T04:20:58.239Z,97638.13
2022-12-23T04:23:24.870Z,97629.44
2022-12-23T04:25:51.605Z,97621.84
2022-12-23T04:28:18.324Z,97618.47
2022-12-23T04:30:45.007Z,97608.22
2022-12-23T04:33:12.447Z,97605.72
2022-12-23T04:35:39.291Z,97601.94
2022-12-23T04:38:06.215Z,97609.56
2022-12-23T04:40:32.953Z,97609.25
2022-12-23T04:42:59.704Z,97617.47
2022-12-23T04:45:26.433Z,97625.28
2022-12-23T04:47:54.431Z,97625.75
2022-12-23T04:50:21.283Z,97618.03
2022-12-23T04:52:47.913Z,97619.81
2022-12-23T04:55:14.622Z,97617.16
2022-12-23T04:57:41.310Z,97618.78
2022-12-23T05:00:08.651Z,97623.00
2022-12-23T05:02:35.491Z,97615.88
2022-12-23T05:05:02.356Z,97619.34
2022-12-23T05:07:29.051Z,97628.03
2022-12-23T05:09:57.509Z,97622.69
2022-12-23T05:12:24.194Z,97629.03
2022-12-23T05:14:50.891Z,97622.53
2022-12-23T05:17:17.524Z,97620.47
2022-12-23T05:19:44.197Z,97621.59
2022-12-23T05:22:10.877Z,97621.44
2022-12-23T05:24:37.578Z,97627.78
2022-12-23T05:27:04.297Z,97628.56
2022-12-23T05:29:31.233Z,97623.59
2022-12-23T05:31:58.063Z,97633.31
2022-12-23T05:34:24.720Z,97644.28
2022-12-23T05:36:51.358Z,97650.19
2022-12-23T05:39:17.968Z,97642.84
2022-12-23T05:41:45.823Z,97639.53
2022-12-23T05:44:12.566Z,97638.66
2022-12-23T05:46:39.304Z,97632.03
2022-12-23T05:49:06.081Z,97635.44
2022-12-23T05:51:32.697Z,97624.38
2022-12-23T05:53:59.470Z,97618.63
2022-12-23T05:56:26.131Z,97619.38
2022-12-23T05:58:52.869Z,97630.13
2022-12-23T06:01:19.479Z,97630.34
2022-12-23T06:03:46.212Z,97639.91
2022-12-23T06:06:13.079Z,97645.47
2022-12-23T06:08:39.821Z,97646.09
2022-12-23T06:11:06.630Z,97647.56
2022-12-23T06:13:33.292Z,97648.47
2022-12-23T06:16:00.048Z,97646.75
2022-12-23T06:18:26.752Z,97642.19
2022-12-23T06:20:53.408Z,97646.22
2022-12-23T06:23:20.076Z,97651.41
2022-12-23T06:25:46.661Z,97647.78
2022-12-23T06:28:13.446Z,97651.66
2022-12-23T06:30:40.106Z,97653.63
2022-12-23T06:33:06.730Z,97645.25
2022-12-23T06:35:33.307Z,97655.91
2022-12-23T06:37:59.989Z,97652.25
2022-12-23T06:40:28.945Z,97638.69
2022-12-23T06:42:55.690Z,97635.38
2022-12-23T06:45:22.411Z,97634.00
2022-12-23T06:47:49.196Z,97631.78
2022-12-23T06:50:16.040Z,97637.53
2022-12-23T06:52:42.789Z,97650.22
2022-12-23T06:55:09.603Z,97656.47
2022-12-23T06:57:36.378Z,97651.41
2022-12-23T07:00:05.162Z,97653.56
2022-12-23T07:02:32.705Z,97655.63
2022-12-23T07:04:59.433Z,97653.63
2022-12-23T07:07:26.178Z,97651.47
2022-12-23T07:09:52.869Z,97648.91
2022-12-23T07:12:19.605Z,97653.47
2022-12-23T07:14:46.307Z,97653.09
2022-12-23T07:17:13.370Z,97655.03
2022-12-23T07:19:41.616Z,97654.88
2022-12-23T07:22:10.124Z,97647.88
2022-12-23T07:24:37.487Z,97656.53
2022-12-23T07:27:04.608Z,97655.81
2022-12-23T07:29:31.373Z,97660.13
2022-12-23T07:31:58.265Z,97657.88
2022-12-23T07:34:25.158Z,97650.44
2022-12-23T07:36:52.031Z,97656.22
2022-12-23T07:39:18.865Z,97649.63
2022-12-23T07:41:45.670Z,97644.28
2022-12-23T07:44:13.154Z,97651.81
2022-12-23T07:46:39.972Z,97653.97
2022-12-23T07:49:06.712Z,97657.50
2022-12-23T07:51:33.467Z,97652.19
2022-12-23T07:54:00.151Z,97648.25
2022-12-23T07:56:26.977Z,97630.31
2022-12-23T07:58:54.417Z,97634.59
2022-12-23T08:01:21.746Z,97638.97
2022-12-23T08:03:48.627Z,97638.09
2022-12-23T08:06:16.403Z,97630.06
2022-12-23T08:08:45.337Z,97636.59
2022-12-23T08:11:14.008Z,97633.13
2022-12-23T08:13:42.775Z,97636.72
2022-12-23T08:16:10.439Z,97642.78
2022-12-23T08:18:39.472Z,97649.88
2022-12-23T08:21:12.578Z,97645.81
2022-12-23T08:23:39.365Z,97644.59
2022-12-23T08:26:10.699Z,97646.78
2022-12-23T08:28:38.967Z,97652.66
2022-12-23T08:31:32.386Z,97650.91
2022-12-23T08:34:00.785Z,97638.69
2022-12-23T08:36:30.416Z,97646.34
2022-12-23T08:38:58.912Z,97645.41
2022-12-23T08:41:28.615Z,97637.75
2022-12-23T08:43:56.035Z,97634.06
2022-12-23T08:46:23.292Z,97618.94
2022-12-23T08:48:50.278Z,97624.47
2022-12-23T08:51:18.769Z,97619.94
2022-12-23T08:53:46.143Z,97613.63
2022-12-23T08:56:21.251Z,97607.78
2022-12-23T08:58:50.217Z,97609.84
2022-12-23T09:01:19.021Z,97603.31
2022-12-23T09:03:46.589Z,97609.16
2022-12-23T09:06:28.655Z,97610.59
2022-12-23T09:08:57.167Z,97617.75
2022-12-23T09:11:26.234Z,97615.88
2022-12-23T09:13:53.952Z,97610.34
2022-12-23T09:16:21.137Z,97617.97
2022-12-23T09:18:48.176Z,97620.84
2022-12-23T09:21:17.914Z,97617.84
2022-12-23T09:23:44.930Z,97605.81
2022-12-23T09:26:17.953Z,97605.03
2022-12-23T09:28:44.716Z,97606.13
2022-12-23T09:31:12.798Z,97608.72
2022-12-23T09:33:39.753Z,97602.16
2022-12-23T09:36:06.790Z,97605.38
2022-12-23T09:38:33.796Z,97599.69
2022-12-23T09:41:04.454Z,97592.56
2022-12-23T09:43:46.406Z,97593.84
2022-12-23T09:46:20.415Z,97588.44
2022-12-23T09:49:00.700Z,97580.16
2022-12-23T09:51:29.052Z,97591.53
2022-12-23T09:54:10.852Z,97592.00
2022-12-23T09:56:56.626Z,97590.06
2022-12-23T09:59:35.594Z,97580.78
2022-12-23T10:02:23.735Z,97584.03
2022-12-23T10:05:15.711Z,97573.03
2022-12-23T10:07:49.355Z,97568.56
2022-12-23T10:10:36.259Z,97576.91
2022-12-23T10:13:06.187Z,97567.38
2022-12-23T10:15:38.139Z,97563.94
2022-12-23T10:18:16.599Z,97555.44
2022-12-23T10:21:06.253Z,97560.81
2022-12-23T10:23:42.929Z,97558.28
2022-12-23T10:26:18.494Z,97548.63
2022-12-23T10:28:45.267Z,97547.47
2022-12-23T10:31:39.839Z,97543.63
2022-12-23T10:34:18.666Z,97534.84
2022-12-23T10:37:11.598Z,97513.94
2022-12-23T10:39:53.205Z,97520.00
2022-12-23T10:42:34.042Z,97505.94
2022-12-23T10:45:13.219Z,97502.38
2022-12-23T10:47:39.930Z,97507.53
2022-12-23T10:50:27.006Z,97489.97
2022-12-23T10:52:57.003Z,97491.31
2022-12-23T10:55:33.760Z,97490.38
2022-12-23T10:58:19.865Z,97488.16
2022-12-23T11:00:53.638Z,97481.75
2022-12-23T11:03:38.449Z,97471.41
2022-12-23T11:06:08.629Z,97459.44
2022-12-23T11:08:36.856Z,97456.31
2022-12-23T11:11:03.731Z,97458.78
2022-12-23T11:13:34.519Z,97453.00
2022-12-23T11:16:24.516Z,97442.84
2022-12-23T11:19:06.375Z,97438.88
2022-12-23T11:21:33.816Z,97438.34
2022-12-23T11:24:08.120Z,97436.50
2022-12-23T11:26:35.875Z,97430.91
2022-12-23T11:29:10.961Z,97418.38
2022-12-23T11:31:38.321Z,97417.97
2022-12-23T11:34:13.444Z,97418.97
2022-12-23T11:36:41.319Z,97413.22
2022-12-23T11:39:07.982Z,97403.69
2022-12-23T11:41:40.009Z,97396.25
2022-12-23T11:44:17.160Z,97399.88
2022-12-23T11:46:43.899Z,97382.72
2022-12-23T11:49:22.375Z,97385.59
2022-12-23T11:52:11.008Z,97385.00
2022-12-23T11:54:38.876Z,97378.06
2022-12-23T11:57:21.789Z,97368.66
2022-12-23T11:59:50.040Z,97374.63
2022-12-23T12:02:26.729Z,97371.78
2022-12-23T12:05:02.472Z,97369.47
2022-12-23T12:07:30.582Z,97372.59
2022-12-23T12:10:00.043Z,97365.78
2022-12-23T12:12:28.738Z,97353.38
2022-12-23T12:14:57.970Z,97358.06
2022-12-23T12:17:36.782Z,97352.78
2022-12-23T12:20:19.610Z,97348.56
2022-12-23T12:22:52.533Z,97341.03
2022-12-23T12:25:37.886Z,97350.41
2022-12-23T12:28:13.364Z,97349.13
2022-12-23T12:30:50.206Z,97335.69
2022-12-23T12:33:27.135Z,97334.09
2022-12-23T12:36:06.411Z,97333.09
2022-12-23T12:38:37.833Z,97330.03
2022-12-23T12:41:24.845Z,97330.59
2022-12-23T12:44:13.577Z,97328.75
2022-12-23T12:46:46.498Z,97330.69
2022-12-23T12:49:38.390Z,97321.16
2022-12-23T12:52:13.427Z,97329.31
2022-12-23T12:54:46.556Z,97318.22
2022-12-23T12:57:17.833Z,97318.38
2022-12-23T12:59:47.877Z,97323.78
2022-12-23T13:02:30.096Z,97310.59
2022-12-23T13:05:02.746Z,97318.53
2022-12-23T13:07:39.138Z,97311.19
2022-12-23T13:10:43.168Z,97317.38
2022-12-23T13:13:25.391Z,97318.41
2022-12-23T13:16:00.890Z,97307.75
2022-12-23T13:18:50.810Z,97314.31
2022-12-23T13:21:49.957Z,97305.94
2022-12-23T13:24:43.740Z,97306.69
2022-12-23T13:27:38.465Z,97313.88
2022-12-23T13:30:17.841Z,97318.47
2022-12-23T13:33:15.457Z,97311.69
2022-12-23T13:35:48.227Z,97312.25
2022-12-23T13:38:48.351Z,97309.47
2022-12-23T13:41:32.529Z,97297.56
2022-12-23T13:44:05.457Z,97310.03
2022-12-23T13:46:47.565Z,97303.41
2022-12-23T13:49:32.262Z,97288.25
2022-12-23T13:52:24.138Z,97296.06
2022-12-23T13:54:59.537Z,97312.06
2022-12-23T13:57:47.946Z,97308.94
2022-12-23T14:00:17.973Z,97294.25
2022-12-23T14:03:03.000Z,97300.97
2022-12-23T14:05:40.931Z,97296.03
2022-12-23T14:08:20.131Z,97298.03
2022-12-23T14:10:55.851Z,97301.72
2022-12-23T14:13:34.077Z,97292.88
2022-12-23T14:16:24.620Z,97286.63
2022-12-23T14:19:10.352Z,97292.97
2022-12-23T14:22:04.259Z,97277.16
2022-12-23T14:24:46.336Z,97276.78
2022-12-23T14:27:34.517Z,97288.00
2022-12-23T14:30:30.976Z,97280.03
2022-12-23T14:32:59.939Z,97290.38
2022-12-23T14:35:38.477Z,97281.59
2022-12-23T14:38:15.029Z,97295.34
2022-12-23T14:40:41.716Z,97300.88
2022-12-23T14:43:30.391Z,97311.19
2022-12-23T14:46:02.021Z,97307.25
2022-12-23T14:48:34.748Z,97302.09
2022-12-23T14:51:10.296Z,97302.22
2022-12-23T14:53:58.574Z,97312.47
2022-12-23T14:56:40.556Z,97315.09
2022-12-23T14:59:33.081Z,97312.25
2022-12-23T15:02:16.284Z,97301.09
2022-12-23T15:05:09.648Z,97320.31
2022-12-23T15:07:43.982Z,97318.19
2022-12-23T15:10:21.547Z,97327.84
2022-12-23T15:12:52.296Z,97322.00
2022-12-23T15:15:22.346Z,97330.59
2022-12-23T15:18:00.242Z,97317.25
2022-12-23T15:20:26.954Z,97332.09
2022-12-23T15:22:53.620Z,97343.25
2022-12-23T15:25:33.967Z,97338.94
2022-12-23T15:28:03.225Z,97341.75
2022-12-23T15:30:36.218Z,97352.50
2022-12-23T15:33:21.871Z,97346.31
2022-12-23T15:35:54.243Z,97353.34
2022-12-23T15:38:24.420Z,97357.53
2022-12-23T15:41:03.191Z,97360.28
2022-12-23T15:43:30.908Z,97358.41
2022-12-23T15:46:16.910Z,97349.97
2022-12-23T15:48:44.209Z,97365.78
2022-12-23T15:52:05.204Z,97373.13
2022-12-23T15:54:22.686Z,97362.63
2022-12-23T15:56:52.135Z,97370.78
2022-12-23T15:59:25.282Z,97374.88
2022-12-23T16:01:52.576Z,97382.09
2022-12-23T16:04:27.003Z,97387.69
2022-12-23T16:06:55.449Z,97389.59
2022-12-23T16:09:35.919Z,97382.88
2022-12-23T16:12:25.120Z,97386.41
2022-12-23T16:15:02.755Z,97402.66
2022-12-23T16:17:35.180Z,97386.63
2022-12-23T16:20:22.267Z,97405.66
2022-12-23T16:22:53.090Z,97401.94
2022-12-23T16:25:27.571Z,97409.00
2022-12-23T16:28:02.989Z,97407.34
2022-12-23T16:30:34.513Z,97407.25
2022-12-23T16:33:04.586Z,97406.44
2022-12-23T16:35:41.170Z,97409.91
2022-12-23T16:38:21.182Z,97409.03
2022-12-23T16:40:52.874Z,97414.94
2022-12-23T16:43:21.032Z,97415.63
2022-12-23T16:45:52.553Z,97418.94
2022-12-23T16:48:32.293Z,97425.16
2022-12-23T16:51:00.394Z,97438.00
2022-12-23T16:53:27.619Z,97430.97
2022-12-23T16:56:00.330Z,97430.50
2022-12-23T16:58:27.855Z,97430.19
2022-12-23T17:00:54.947Z,97436.75
2022-12-23T17:03:21.733Z,97430.84
2022-12-23T17:05:48.735Z,97436.19
2022-12-23T17:08:15.831Z,97447.94
2022-12-23T17:10:44.529Z,97455.53
2022-12-23T17:13:17.319Z,97460.22
2022-12-23T17:15:45.050Z,97475.53
2022-12-23T17:18:17.532Z,97466.91
2022-12-23T17:20:46.014Z,97461.66
2022-12-23T17:23:31.006Z,97462.34
2022-12-23T17:25:58.688Z,97461.06
2022-12-23T17:28:31.719Z,97460.13
2022-12-23T17:30:58.995Z,97457.63
2022-12-23T17:33:30.354Z,97451.25
2022-12-23T17:35:57.620Z,97455.84
2022-12-23T17:38:24.970Z,97471.56
2022-12-23T17:40:51.759Z,97464.22
2022-12-23T17:43:19.095Z,97464.53
2022-12-23T17:45:47.017Z,97472.34
2022-12-23T17:48:20.179Z,97470.59
2022-12-23T17:50:48.790Z,97480.75
2022-12-23T17:53:19.625Z,97488.84
2022-12-23T17:55:46.692Z,97494.84
2022-12-23T17:58:14.235Z,97486.94
2022-12-23T18:00:41.576Z,97497.13
2022-12-23T18:03:20.948Z,97501.59
2022-12-23T18:05:47.708Z,97489.59
2022-12-23T18:08:14.362Z,97499.31
2022-12-23T18:10:41.085Z,97494.53
2022-12-23T18:13:18.350Z,97491.34
2022-12-23T18:15:45.752Z,97496.25
2022-12-23T18:18:24.083Z,97493.94
2022-12-23T18:20:57.400Z,97504.13
2022-12-23T18:23:29.878Z,97504.88
2022-12-23T18:25:57.703Z,97509.38
2022-12-23T18:28:25.399Z,97517.06
2022-12-23T18:30:56.289Z,97527.59
2022-12-23T18:33:24.175Z,97533.09
2022-12-23T18:35:50.951Z,97574.34
2022-12-23T18:38:18.171Z,97569.94
2022-12-23T18:40:45.239Z,97562.34
2022-12-23T18:43:19.667Z,97564.03
2022-12-23T18:45:52.462Z,97584.13
2022-12-23T18:48:20.222Z,97592.97
2022-12-23T18:50:47.013Z,97586.78
2022-12-23T18:53:23.875Z,97587.97
2022-12-23T18:55:52.599Z,97607.59
2022-12-23T18:58:19.743Z,97612.13
2022-12-23T19:00:47.773Z,97604.75
2022-12-23T19:03:27.187Z,97597.25
2022-12-23T19:05:55.885Z,97596.78
2022-12-23T19:08:27.191Z,97593.84
2022-12-23T19:10:55.442Z,97596.13
2022-12-23T19:13:22.367Z,97588.50
2022-12-23T19:15:49.574Z,97609.56
2022-12-23T19:18:19.234Z,97610.16
2022-12-23T19:20:47.569Z,97611.13
2022-12-23T19:23:15.262Z,97613.97
2022-12-23T19:25:52.487Z,97616.41
2022-12-23T19:28:22.143Z,97614.78
2022-12-23T19:30:49.641Z,97616.94
2022-12-23T19:33:16.859Z,97626.31
2022-12-23T19:35:44.511Z,97621.66
2022-12-23T19:38:12.859Z,97612.94
2022-12-23T19:40:40.223Z,97606.16
2022-12-23T19:43:07.242Z,97616.22
2022-12-23T19:45:34.019Z,97631.16
2022-12-23T19:48:00.715Z,97654.94
2022-12-23T19:50:27.563Z,97648.19
2022-12-23T19:52:56.093Z,97642.97
2022-12-23T19:55:22.981Z,97654.94
2022-12-23T19:57:49.750Z,97668.72
2022-12-23T20:00:16.727Z,97683.69
2022-12-23T20:02:43.581Z,97684.97
2022-12-23T20:05:10.372Z,97694.75
2022-12-23T20:07:37.385Z,97689.19
2022-12-23T20:10:05.010Z,97702.59
2022-12-23T20:12:31.756Z,97702.50
2022-12-23T20:14:58.443Z,97705.34
2022-12-23T20:17:25.260Z,97697.97
2022-12-23T20:19:51.886Z,97701.16
2022-12-23T20:22:18.729Z,97696.03
2022-12-23T20:24:45.658Z,97701.16
2022-12-23T20:27:15.620Z,97702.91
2022-12-23T20:29:42.812Z,97703.38
2022-12-23T20:32:10.181Z,97696.56
2022-12-23T20:34:39.899Z,97704.78
2022-12-23T20:37:07.590Z,97697.59
2022-12-23T20:39:34.750Z,97708.47
2022-12-23T20:42:01.520Z,97701.72
2022-12-23T20:44:37.061Z,97706.06
2022-12-23T20:47:07.033Z,97704.69
2022-12-23T20:49:33.774Z,97693.41
2022-12-23T20:52:01.347Z,97705.25
2022-12-23T20:54:33.310Z,97713.72
2022-12-23T20:57:02.464Z,97712.06
2022-12-23T20:59:29.258Z,97719.66
2022-12-23T21:01:59.001Z,97732.88
2022-12-23T21:04:26.082Z,97742.00
2022-12-23T21:06:52.775Z,97746.06
2022-12-23T21:09:19.959Z,97742.00
2022-12-23T21:11:47.384Z,97747.47
2022-12-23T21:14:15.119Z,97738.75
2022-12-23T21:16:42.617Z,97735.84
2022-12-23T21:19:17.152Z,97754.72
2022-12-23T21:21:44.530Z,97753.13
2022-12-23T21:24:11.596Z,97760.09
2022-12-23T21:26:38.821Z,97764.56
2022-12-23T21:29:08.243Z,97756.34
2022-12-23T21:31:38.011Z,97768.47
2022-12-23T21:34:05.424Z,97769.72
2022-12-23T21:36:34.936Z,97770.38
2022-12-23T21:39:01.871Z,97773.75
2022-12-23T21:41:31.466Z,97782.34
2022-12-23T21:43:59.841Z,97786.56
2022-12-23T21:46:28.354Z,97785.56
2022-12-23T21:48:58.861Z,97781.88
2022-12-23T21:51:38.929Z,97790.50
2022-12-23T21:54:07.996Z,97799.88
2022-12-23T21:56:35.038Z,97809.03
2022-12-23T21:59:12.791Z,97822.84
2022-12-23T22:01:41.387Z,97828.41
2022-12-23T22:04:08.112Z,97826.28
2022-12-23T22:06:38.214Z,97829.81
2022-12-23T22:09:06.262Z,97833.72
2022-12-23T22:11:35.106Z,97827.94
2022-12-23T22:14:03.871Z,97832.09
2022-12-23T22:16:31.617Z,97838.69
2022-12-23T22:19:00.383Z,97841.38
2022-12-23T22:21:29.314Z,97849.88
2022-12-23T22:23:57.016Z,97843.03
2022-12-23T22:26:26.897Z,97854.50
2022-12-23T22:28:58.853Z,97842.16
2022-12-23T22:31:39.926Z,97851.81
2022-12-23T22:34:08.579Z,97863.38
2022-12-23T22:36:35.681Z,97867.69
2022-12-23T22:39:03.201Z,97866.50
2022-12-23T22:41:31.180Z,97871.34
2022-12-23T22:43:58.686Z,97877.31
2022-12-23T22:46:26.480Z,97870.44
2022-12-23T22:48:53.578Z,97871.47
2022-12-23T22:51:25.399Z,97888.78
2022-12-23T22:53:52.445Z,97885.59
2022-12-23T22:56:20.819Z,97888.94
2022-12-23T22:58:48.157Z,97879.94
2022-12-23T23:01:21.303Z,97894.88
2022-12-23T23:03:51.143Z,97900.72
2022-12-23T23:06:18.742Z,97902.22
2022-12-23T23:08:45.415Z,97910.72
2022-12-23T23:11:12.105Z,97912.91
2022-12-23T23:13:38.788Z,97919.28
2022-12-23T23:16:05.942Z,97918.63
2022-12-23T23:18:33.100Z,97927.81
2022-12-23T23:21:00.045Z,97924.81
2022-12-23T23:23:26.793Z,97930.78
2022-12-23T23:25:53.440Z,97919.97
2022-12-23T23:28:20.141Z,97914.59
2022-12-23T23:30:47.033Z,97918.56
2022-12-23T23:33:13.707Z,97918.19
2022-12-23T23:35:40.637Z,97925.66
2022-12-23T23:38:08.217Z,97928.53
2022-12-23T23:40:35.605Z,97925.13
2022-12-23T23:43:02.315Z,97917.03
2022-12-23T23:45:30.111Z,97917.50
2022-12-23T23:47:56.825Z,97927.34
2022-12-23T23:50:23.534Z,97931.44
2022-12-23T23:52:50.280Z,97926.97
2022-12-23T23:55:17.018Z,97940.03
2022-12-23T23:57:43.624Z,97925.19
